sensor_id;sensor_type;location;lat;lon;timestamp;temperature;humidity
23291;DHT22;11814;44.686;10.842;2022-08-14T00:00:14;23.00;72.70
23291;DHT22;11814;44.686;10.842;2022-08-14T00:02:41;23.00;73.10
23291;DHT22;11814;44.686;10.842;2022-08-14T00:05:11;23.00;73.50
23291;DHT22;11814;44.686;10.842;2022-08-14T00:07:38;22.90;73.90
23291;DHT22;11814;44.686;10.842;2022-08-14T00:10:08;22.90;74.30
23291;DHT22;11814;44.686;10.842;2022-08-14T00:12:36;22.80;74.60
23291;DHT22;11814;44.686;10.842;2022-08-14T00:15:09;22.80;75.00
23291;DHT22;11814;44.686;10.842;2022-08-14T00:17:35;22.70;75.40
23291;DHT22;11814;44.686;10.842;2022-08-14T00:20:00;22.70;75.60
23291;DHT22;11814;44.686;10.842;2022-08-14T00:22:26;22.70;75.80
23291;DHT22;11814;44.686;10.842;2022-08-14T00:24:52;22.70;75.90
23291;DHT22;11814;44.686;10.842;2022-08-14T00:27:17;22.70;76.10
23291;DHT22;11814;44.686;10.842;2022-08-14T00:29:43;22.70;76.20
23291;DHT22;11814;44.686;10.842;2022-08-14T00:32:09;22.70;76.40
23291;DHT22;11814;44.686;10.842;2022-08-14T00:34:34;22.70;76.50
23291;DHT22;11814;44.686;10.842;2022-08-14T00:37:00;22.70;76.50
23291;DHT22;11814;44.686;10.842;2022-08-14T00:39:26;22.60;76.50
23291;DHT22;11814;44.686;10.842;2022-08-14T00:41:51;22.50;76.70
23291;DHT22;11814;44.686;10.842;2022-08-14T00:44:17;22.40;76.90
23291;DHT22;11814;44.686;10.842;2022-08-14T00:46:43;22.40;77.30
23291;DHT22;11814;44.686;10.842;2022-08-14T00:49:10;22.40;77.50
23291;DHT22;11814;44.686;10.842;2022-08-14T00:51:37;22.40;77.70
23291;DHT22;11814;44.686;10.842;2022-08-14T00:54:05;22.30;77.90
23291;DHT22;11814;44.686;10.842;2022-08-14T00:56:31;22.20;79.10
23291;DHT22;11814;44.686;10.842;2022-08-14T00:58:57;22.10;78.70
23291;DHT22;11814;44.686;10.842;2022-08-14T01:01:24;22.10;79.00
23291;DHT22;11814;44.686;10.842;2022-08-14T01:03:52;22.00;79.10
23291;DHT22;11814;44.686;10.842;2022-08-14T01:06:18;22.00;79.30
23291;DHT22;11814;44.686;10.842;2022-08-14T01:08:43;21.90;79.50
23291;DHT22;11814;44.686;10.842;2022-08-14T01:11:11;21.90;79.70
23291;DHT22;11814;44.686;10.842;2022-08-14T01:13:41;21.90;79.90
23291;DHT22;11814;44.686;10.842;2022-08-14T01:16:11;21.80;80.00
23291;DHT22;11814;44.686;10.842;2022-08-14T01:18:36;21.80;80.20
23291;DHT22;11814;44.686;10.842;2022-08-14T01:21:31;21.80;80.50
23291;DHT22;11814;44.686;10.842;2022-08-14T01:23:57;21.80;80.60
23291;DHT22;11814;44.686;10.842;2022-08-14T01:26:24;21.80;80.60
23291;DHT22;11814;44.686;10.842;2022-08-14T01:28:51;21.80;80.70
23291;DHT22;11814;44.686;10.842;2022-08-14T01:31:21;21.80;80.70
23291;DHT22;11814;44.686;10.842;2022-08-14T01:33:50;21.90;80.80
23291;DHT22;11814;44.686;10.842;2022-08-14T01:36:18;21.90;80.60
23291;DHT22;11814;44.686;10.842;2022-08-14T01:38:46;21.90;80.50
23291;DHT22;11814;44.686;10.842;2022-08-14T01:41:19;21.90;80.60
23291;DHT22;11814;44.686;10.842;2022-08-14T01:43:54;21.90;80.70
23291;DHT22;11814;44.686;10.842;2022-08-14T01:46:35;21.90;80.60
23291;DHT22;11814;44.686;10.842;2022-08-14T01:49:05;21.90;80.40
23291;DHT22;11814;44.686;10.842;2022-08-14T01:51:31;21.90;80.30
23291;DHT22;11814;44.686;10.842;2022-08-14T01:54:00;21.90;80.40
23291;DHT22;11814;44.686;10.842;2022-08-14T01:56:29;21.80;81.20
23291;DHT22;11814;44.686;10.842;2022-08-14T02:01:31;21.70;81.50
23291;DHT22;11814;44.686;10.842;2022-08-14T02:03:56;21.70;81.00
23291;DHT22;11814;44.686;10.842;2022-08-14T02:06:22;21.70;81.10
23291;DHT22;11814;44.686;10.842;2022-08-14T02:08:51;21.60;81.20
23291;DHT22;11814;44.686;10.842;2022-08-14T02:11:16;21.60;81.40
23291;DHT22;11814;44.686;10.842;2022-08-14T02:14:10;21.60;81.50
23291;DHT22;11814;44.686;10.842;2022-08-14T02:16:43;21.60;81.20
23291;DHT22;11814;44.686;10.842;2022-08-14T02:19:12;21.60;81.00
23291;DHT22;11814;44.686;10.842;2022-08-14T02:21:40;21.60;81.10
23291;DHT22;11814;44.686;10.842;2022-08-14T02:24:08;21.60;81.10
23291;DHT22;11814;44.686;10.842;2022-08-14T02:26:37;21.50;81.20
23291;DHT22;11814;44.686;10.842;2022-08-14T02:29:10;21.50;81.40
23291;DHT22;11814;44.686;10.842;2022-08-14T02:31:38;21.40;81.50
23291;DHT22;11814;44.686;10.842;2022-08-14T02:34:33;21.30;81.90
23291;DHT22;11814;44.686;10.842;2022-08-14T02:37:05;21.20;82.10
23291;DHT22;11814;44.686;10.842;2022-08-14T02:39:36;21.20;82.10
23291;DHT22;11814;44.686;10.842;2022-08-14T02:42:03;21.20;81.70
23291;DHT22;11814;44.686;10.842;2022-08-14T02:44:29;21.20;81.30
23291;DHT22;11814;44.686;10.842;2022-08-14T02:46:55;21.30;80.90
23291;DHT22;11814;44.686;10.842;2022-08-14T02:49:22;21.30;80.70
23291;DHT22;11814;44.686;10.842;2022-08-14T02:51:54;21.30;81.30
23291;DHT22;11814;44.686;10.842;2022-08-14T02:54:20;21.30;80.60
23291;DHT22;11814;44.686;10.842;2022-08-14T02:56:56;21.30;80.80
23291;DHT22;11814;44.686;10.842;2022-08-14T02:59:24;21.30;80.80
23291;DHT22;11814;44.686;10.842;2022-08-14T03:01:53;21.20;80.70
23291;DHT22;11814;44.686;10.842;2022-08-14T03:04:19;21.20;80.60
23291;DHT22;11814;44.686;10.842;2022-08-14T03:06:46;21.30;80.60
23291;DHT22;11814;44.686;10.842;2022-08-14T03:09:13;21.30;80.30
23291;DHT22;11814;44.686;10.842;2022-08-14T03:11:39;21.30;79.90
23291;DHT22;11814;44.686;10.842;2022-08-14T03:14:06;21.30;79.70
23291;DHT22;11814;44.686;10.842;2022-08-14T03:16:34;21.30;79.80
23291;DHT22;11814;44.686;10.842;2022-08-14T03:19:01;21.20;79.70
23291;DHT22;11814;44.686;10.842;2022-08-14T03:21:28;21.20;79.60
23291;DHT22;11814;44.686;10.842;2022-08-14T03:23:57;21.20;79.70
23291;DHT22;11814;44.686;10.842;2022-08-14T03:26:45;21.10;79.70
23291;DHT22;11814;44.686;10.842;2022-08-14T03:29:14;21.10;79.80
23291;DHT22;11814;44.686;10.842;2022-08-14T03:31:41;21.10;79.90
23291;DHT22;11814;44.686;10.842;2022-08-14T03:34:08;21.00;80.00
23291;DHT22;11814;44.686;10.842;2022-08-14T03:36:38;21.10;80.00
23291;DHT22;11814;44.686;10.842;2022-08-14T03:39:06;21.10;79.80
23291;DHT22;11814;44.686;10.842;2022-08-14T03:41:33;21.00;79.70
23291;DHT22;11814;44.686;10.842;2022-08-14T03:44:01;21.10;79.70
23291;DHT22;11814;44.686;10.842;2022-08-14T03:46:36;21.00;79.60
23291;DHT22;11814;44.686;10.842;2022-08-14T03:49:04;21.00;79.60
23291;DHT22;11814;44.686;10.842;2022-08-14T03:51:31;21.00;79.60
23291;DHT22;11814;44.686;10.842;2022-08-14T03:53:59;21.00;79.60
23291;DHT22;11814;44.686;10.842;2022-08-14T03:56:26;21.00;79.60
23291;DHT22;11814;44.686;10.842;2022-08-14T03:58:53;21.00;79.50
23291;DHT22;11814;44.686;10.842;2022-08-14T04:01:21;20.90;79.60
23291;DHT22;11814;44.686;10.842;2022-08-14T04:03:50;20.90;79.70
23291;DHT22;11814;44.686;10.842;2022-08-14T04:06:17;20.90;79.50
23291;DHT22;11814;44.686;10.842;2022-08-14T04:08:45;21.00;79.30
23291;DHT22;11814;44.686;10.842;2022-08-14T04:11:11;21.00;79.40
23291;DHT22;11814;44.686;10.842;2022-08-14T04:13:40;20.90;79.30
23291;DHT22;11814;44.686;10.842;2022-08-14T04:16:09;20.80;79.40
23291;DHT22;11814;44.686;10.842;2022-08-14T04:18:44;20.80;79.60
23291;DHT22;11814;44.686;10.842;2022-08-14T04:21:11;20.80;79.80
23291;DHT22;11814;44.686;10.842;2022-08-14T04:23:38;20.80;79.60
23291;DHT22;11814;44.686;10.842;2022-08-14T04:26:06;20.80;79.40
23291;DHT22;11814;44.686;10.842;2022-08-14T04:28:33;20.80;79.00
23291;DHT22;11814;44.686;10.842;2022-08-14T04:31:01;20.90;78.80
23291;DHT22;11814;44.686;10.842;2022-08-14T04:33:26;20.90;78.60
23291;DHT22;11814;44.686;10.842;2022-08-14T04:35:53;20.90;78.40
23291;DHT22;11814;44.686;10.842;2022-08-14T04:38:20;20.90;78.30
23291;DHT22;11814;44.686;10.842;2022-08-14T04:41:05;20.90;78.00
23291;DHT22;11814;44.686;10.842;2022-08-14T04:43:49;21.00;78.00
23291;DHT22;11814;44.686;10.842;2022-08-14T04:46:17;21.00;78.00
23291;DHT22;11814;44.686;10.842;2022-08-14T04:48:43;21.00;78.10
23291;DHT22;11814;44.686;10.842;2022-08-14T04:51:14;20.90;78.10
23291;DHT22;11814;44.686;10.842;2022-08-14T04:53:47;20.90;78.10
23291;DHT22;11814;44.686;10.842;2022-08-14T04:56:15;21.00;78.10
23291;DHT22;11814;44.686;10.842;2022-08-14T04:58:41;21.10;77.90
23291;DHT22;11814;44.686;10.842;2022-08-14T05:01:08;21.10;77.60
23291;DHT22;11814;44.686;10.842;2022-08-14T05:03:36;21.30;77.60
23291;DHT22;11814;44.686;10.842;2022-08-14T05:06:04;21.50;77.10
23291;DHT22;11814;44.686;10.842;2022-08-14T05:08:31;21.80;76.30
23291;DHT22;11814;44.686;10.842;2022-08-14T05:10:59;22.10;75.30
23291;DHT22;11814;44.686;10.842;2022-08-14T05:13:26;22.20;74.90
23291;DHT22;11814;44.686;10.842;2022-08-14T05:15:54;22.20;74.50
23291;DHT22;11814;44.686;10.842;2022-08-14T05:18:26;22.20;74.40
23291;DHT22;11814;44.686;10.842;2022-08-14T05:20:54;22.10;74.20
23291;DHT22;11814;44.686;10.842;2022-08-14T05:23:31;22.10;74.00
23291;DHT22;11814;44.686;10.842;2022-08-14T05:25:58;22.10;74.20
23291;DHT22;11814;44.686;10.842;2022-08-14T05:28:30;22.00;74.20
23291;DHT22;11814;44.686;10.842;2022-08-14T05:30:58;22.10;74.10
23291;DHT22;11814;44.686;10.842;2022-08-14T05:33:26;22.20;74.00
23291;DHT22;11814;44.686;10.842;2022-08-14T05:35:57;22.30;74.20
23291;DHT22;11814;44.686;10.842;2022-08-14T05:38:33;22.60;74.10
23291;DHT22;11814;44.686;10.842;2022-08-14T05:41:11;23.10;73.10
23291;DHT22;11814;44.686;10.842;2022-08-14T05:43:40;23.70;71.20
23291;DHT22;11814;44.686;10.842;2022-08-14T05:46:09;23.80;70.10
23291;DHT22;11814;44.686;10.842;2022-08-14T05:48:35;23.80;69.70
23291;DHT22;11814;44.686;10.842;2022-08-14T05:51:01;23.70;69.70
23291;DHT22;11814;44.686;10.842;2022-08-14T05:53:27;23.70;70.30
23291;DHT22;11814;44.686;10.842;2022-08-14T05:55:54;23.60;70.80
23291;DHT22;11814;44.686;10.842;2022-08-14T05:58:20;23.60;71.40
23291;DHT22;11814;44.686;10.842;2022-08-14T06:00:46;23.60;71.80
23291;DHT22;11814;44.686;10.842;2022-08-14T06:03:19;23.70;72.30
23291;DHT22;11814;44.686;10.842;2022-08-14T06:05:47;23.80;72.70
23291;DHT22;11814;44.686;10.842;2022-08-14T06:08:25;24.20;72.70
23291;DHT22;11814;44.686;10.842;2022-08-14T06:10:54;24.80;71.50
23291;DHT22;11814;44.686;10.842;2022-08-14T06:13:21;25.40;71.20
23291;DHT22;11814;44.686;10.842;2022-08-14T06:15:47;26.40;69.20
23291;DHT22;11814;44.686;10.842;2022-08-14T06:18:14;27.30;67.10
23291;DHT22;11814;44.686;10.842;2022-08-14T06:20:40;28.20;64.80
23291;DHT22;11814;44.686;10.842;2022-08-14T06:23:06;29.20;61.90
23291;DHT22;11814;44.686;10.842;2022-08-14T06:25:32;29.90;59.30
23291;DHT22;11814;44.686;10.842;2022-08-14T06:27:58;29.80;58.10
23291;DHT22;11814;44.686;10.842;2022-08-14T06:30:26;29.40;57.80
23291;DHT22;11814;44.686;10.842;2022-08-14T06:32:52;28.90;58.30
23291;DHT22;11814;44.686;10.842;2022-08-14T06:35:19;28.40;59.30
23291;DHT22;11814;44.686;10.842;2022-08-14T06:37:50;28.10;60.00
23291;DHT22;11814;44.686;10.842;2022-08-14T06:40:24;28.00;60.80
23291;DHT22;11814;44.686;10.842;2022-08-14T06:42:50;27.80;61.60
23291;DHT22;11814;44.686;10.842;2022-08-14T06:45:16;27.90;62.20
23291;DHT22;11814;44.686;10.842;2022-08-14T06:47:44;28.00;62.10
23291;DHT22;11814;44.686;10.842;2022-08-14T06:50:15;28.10;62.60
23291;DHT22;11814;44.686;10.842;2022-08-14T06:52:42;28.30;62.90
23291;DHT22;11814;44.686;10.842;2022-08-14T06:55:09;28.20;63.50
23291;DHT22;11814;44.686;10.842;2022-08-14T06:57:38;28.00;64.30
23291;DHT22;11814;44.686;10.842;2022-08-14T07:00:09;27.80;64.50
23291;DHT22;11814;44.686;10.842;2022-08-14T07:02:35;27.40;64.60
23291;DHT22;11814;44.686;10.842;2022-08-14T07:05:19;27.20;64.40
23291;DHT22;11814;44.686;10.842;2022-08-14T07:08:03;26.90;63.70
23291;DHT22;11814;44.686;10.842;2022-08-14T07:10:30;26.70;63.70
23291;DHT22;11814;44.686;10.842;2022-08-14T07:12:56;26.60;63.50
23291;DHT22;11814;44.686;10.842;2022-08-14T07:15:22;26.40;63.30
23291;DHT22;11814;44.686;10.842;2022-08-14T07:17:49;26.40;63.70
23291;DHT22;11814;44.686;10.842;2022-08-14T07:20:16;26.30;64.00
23291;DHT22;11814;44.686;10.842;2022-08-14T07:22:46;26.30;64.30
23291;DHT22;11814;44.686;10.842;2022-08-14T07:25:12;26.30;64.10
23291;DHT22;11814;44.686;10.842;2022-08-14T07:27:39;26.40;63.40
23291;DHT22;11814;44.686;10.842;2022-08-14T07:30:06;26.40;63.10
23291;DHT22;11814;44.686;10.842;2022-08-14T07:32:32;26.40;62.70
23291;DHT22;11814;44.686;10.842;2022-08-14T07:34:57;26.40;62.70
23291;DHT22;11814;44.686;10.842;2022-08-14T07:37:23;26.40;62.70
23291;DHT22;11814;44.686;10.842;2022-08-14T07:39:49;26.50;62.70
23291;DHT22;11814;44.686;10.842;2022-08-14T07:42:15;26.50;62.40
23291;DHT22;11814;44.686;10.842;2022-08-14T07:44:41;26.60;62.00
23291;DHT22;11814;44.686;10.842;2022-08-14T07:47:07;26.60;61.40
23291;DHT22;11814;44.686;10.842;2022-08-14T07:49:33;26.70;61.20
23291;DHT22;11814;44.686;10.842;2022-08-14T07:52:02;26.70;61.20
23291;DHT22;11814;44.686;10.842;2022-08-14T07:54:28;26.90;61.20
23291;DHT22;11814;44.686;10.842;2022-08-14T07:56:56;27.00;61.20
23291;DHT22;11814;44.686;10.842;2022-08-14T07:59:22;27.20;61.10
23291;DHT22;11814;44.686;10.842;2022-08-14T08:01:48;27.30;60.90
23291;DHT22;11814;44.686;10.842;2022-08-14T08:04:14;27.60;60.70
23291;DHT22;11814;44.686;10.842;2022-08-14T08:06:40;27.80;60.10
23291;DHT22;11814;44.686;10.842;2022-08-14T08:09:08;28.00;60.00
23291;DHT22;11814;44.686;10.842;2022-08-14T08:11:35;28.10;59.60
23291;DHT22;11814;44.686;10.842;2022-08-14T08:14:05;28.20;58.70
23291;DHT22;11814;44.686;10.842;2022-08-14T08:16:33;28.20;58.10
23291;DHT22;11814;44.686;10.842;2022-08-14T08:18:59;28.10;58.00
23291;DHT22;11814;44.686;10.842;2022-08-14T08:21:24;28.10;58.30
23291;DHT22;11814;44.686;10.842;2022-08-14T08:23:51;28.10;58.70
23291;DHT22;11814;44.686;10.842;2022-08-14T08:26:18;28.20;58.70
23291;DHT22;11814;44.686;10.842;2022-08-14T08:28:54;28.30;58.80
23291;DHT22;11814;44.686;10.842;2022-08-14T08:31:20;28.40;58.60
23291;DHT22;11814;44.686;10.842;2022-08-14T08:33:50;28.40;58.40
23291;DHT22;11814;44.686;10.842;2022-08-14T08:36:17;28.40;58.00
23291;DHT22;11814;44.686;10.842;2022-08-14T08:38:43;28.40;57.90
23291;DHT22;11814;44.686;10.842;2022-08-14T08:41:10;28.40;57.80
23291;DHT22;11814;44.686;10.842;2022-08-14T08:43:36;28.40;57.70
23291;DHT22;11814;44.686;10.842;2022-08-14T08:46:14;28.50;57.70
23291;DHT22;11814;44.686;10.842;2022-08-14T08:48:46;28.50;57.60
23291;DHT22;11814;44.686;10.842;2022-08-14T08:51:29;28.50;57.50
23291;DHT22;11814;44.686;10.842;2022-08-14T08:53:59;28.40;57.30
23291;DHT22;11814;44.686;10.842;2022-08-14T08:56:48;28.40;57.40
23291;DHT22;11814;44.686;10.842;2022-08-14T08:59:26;28.40;57.80
23291;DHT22;11814;44.686;10.842;2022-08-14T09:02:04;28.50;58.00
23291;DHT22;11814;44.686;10.842;2022-08-14T09:04:36;28.50;58.20
23291;DHT22;11814;44.686;10.842;2022-08-14T09:07:05;28.60;58.50
23291;DHT22;11814;44.686;10.842;2022-08-14T09:09:31;28.60;58.60
23291;DHT22;11814;44.686;10.842;2022-08-14T09:11:59;28.70;58.50
23291;DHT22;11814;44.686;10.842;2022-08-14T09:14:29;28.80;58.40
23291;DHT22;11814;44.686;10.842;2022-08-14T09:16:57;28.80;58.20
23291;DHT22;11814;44.686;10.842;2022-08-14T09:19:24;28.90;58.10
23291;DHT22;11814;44.686;10.842;2022-08-14T09:21:49;28.90;57.90
23291;DHT22;11814;44.686;10.842;2022-08-14T09:24:15;28.90;57.60
23291;DHT22;11814;44.686;10.842;2022-08-14T09:26:42;29.00;57.60
23291;DHT22;11814;44.686;10.842;2022-08-14T09:29:09;29.00;57.70
23291;DHT22;11814;44.686;10.842;2022-08-14T09:31:38;29.00;57.70
23291;DHT22;11814;44.686;10.842;2022-08-14T09:45:02;29.50;56.40
23291;DHT22;11814;44.686;10.842;2022-08-14T09:50:43;29.70;54.80
23291;DHT22;11814;44.686;10.842;2022-08-14T09:53:09;29.80;54.20
23291;DHT22;11814;44.686;10.842;2022-08-14T09:55:35;30.00;54.50
23291;DHT22;11814;44.686;10.842;2022-08-14T09:58:18;30.10;54.30
23291;DHT22;11814;44.686;10.842;2022-08-14T10:00:49;30.20;53.50
23291;DHT22;11814;44.686;10.842;2022-08-14T10:05:50;30.40;52.20
23291;DHT22;11814;44.686;10.842;2022-08-14T10:08:20;30.40;52.20
23291;DHT22;11814;44.686;10.842;2022-08-14T10:10:45;30.40;52.50
23291;DHT22;11814;44.686;10.842;2022-08-14T10:13:23;30.50;52.80
23291;DHT22;11814;44.686;10.842;2022-08-14T10:15:50;30.60;53.00
23291;DHT22;11814;44.686;10.842;2022-08-14T10:18:18;30.70;52.50
23291;DHT22;11814;44.686;10.842;2022-08-14T10:20:57;30.70;51.80
23291;DHT22;11814;44.686;10.842;2022-08-14T10:23:25;30.70;52.00
23291;DHT22;11814;44.686;10.842;2022-08-14T10:26:13;30.80;52.40
23291;DHT22;11814;44.686;10.842;2022-08-14T10:28:45;30.80;52.30
23291;DHT22;11814;44.686;10.842;2022-08-14T10:31:22;30.80;52.30
23291;DHT22;11814;44.686;10.842;2022-08-14T10:34:09;30.90;52.30
23291;DHT22;11814;44.686;10.842;2022-08-14T10:36:37;30.90;51.60
23291;DHT22;11814;44.686;10.842;2022-08-14T10:39:07;30.90;51.40
23291;DHT22;11814;44.686;10.842;2022-08-14T10:41:38;31.00;51.20
23291;DHT22;11814;44.686;10.842;2022-08-14T10:44:07;31.00;50.30
23291;DHT22;11814;44.686;10.842;2022-08-14T10:46:51;31.00;49.30
23291;DHT22;11814;44.686;10.842;2022-08-14T10:49:22;31.10;49.10
23291;DHT22;11814;44.686;10.842;2022-08-14T10:51:56;31.10;49.10
23291;DHT22;11814;44.686;10.842;2022-08-14T10:59:44;31.40;48.20
23291;DHT22;11814;44.686;10.842;2022-08-14T11:02:32;31.40;47.70
23291;DHT22;11814;44.686;10.842;2022-08-14T11:07:31;31.50;47.80
23291;DHT22;11814;44.686;10.842;2022-08-14T11:10:08;31.60;47.70
23291;DHT22;11814;44.686;10.842;2022-08-14T11:12:48;31.60;47.90
23291;DHT22;11814;44.686;10.842;2022-08-14T11:15:16;31.70;48.00
23291;DHT22;11814;44.686;10.842;2022-08-14T11:17:42;31.70;47.60
23291;DHT22;11814;44.686;10.842;2022-08-14T11:20:11;31.80;46.90
23291;DHT22;11814;44.686;10.842;2022-08-14T11:22:38;31.80;46.00
23291;DHT22;11814;44.686;10.842;2022-08-14T11:25:07;31.80;45.30
23291;DHT22;11814;44.686;10.842;2022-08-14T11:27:33;31.90;46.00
23291;DHT22;11814;44.686;10.842;2022-08-14T11:30:01;31.80;47.40
23291;DHT22;11814;44.686;10.842;2022-08-14T11:32:28;31.80;48.30
23291;DHT22;11814;44.686;10.842;2022-08-14T11:34:56;31.70;48.40
23291;DHT22;11814;44.686;10.842;2022-08-14T11:37:22;31.80;48.40
23291;DHT22;11814;44.686;10.842;2022-08-14T11:39:48;31.80;47.80
23291;DHT22;11814;44.686;10.842;2022-08-14T11:42:22;31.90;47.30
23291;DHT22;11814;44.686;10.842;2022-08-14T11:44:49;31.90;47.00
23291;DHT22;11814;44.686;10.842;2022-08-14T11:47:17;32.00;47.20
23291;DHT22;11814;44.686;10.842;2022-08-14T11:49:46;32.10;47.60
23291;DHT22;11814;44.686;10.842;2022-08-14T11:52:14;32.20;47.50
23291;DHT22;11814;44.686;10.842;2022-08-14T11:54:41;32.30;47.10
23291;DHT22;11814;44.686;10.842;2022-08-14T11:57:16;32.40;46.20
23291;DHT22;11814;44.686;10.842;2022-08-14T11:59:44;32.50;45.60
23291;DHT22;11814;44.686;10.842;2022-08-14T12:02:12;32.50;45.20
23291;DHT22;11814;44.686;10.842;2022-08-14T12:04:52;32.50;44.10
23291;DHT22;11814;44.686;10.842;2022-08-14T12:07:19;32.60;43.40
23291;DHT22;11814;44.686;10.842;2022-08-14T12:09:46;32.70;43.00
23291;DHT22;11814;44.686;10.842;2022-08-14T12:12:18;32.70;43.50
23291;DHT22;11814;44.686;10.842;2022-08-14T12:17:24;32.60;44.50
23291;DHT22;11814;44.686;10.842;2022-08-14T12:20:01;32.50;44.40
23291;DHT22;11814;44.686;10.842;2022-08-14T12:22:40;32.50;44.40
23291;DHT22;11814;44.686;10.842;2022-08-14T12:25:13;32.50;44.10
23291;DHT22;11814;44.686;10.842;2022-08-14T12:27:45;32.50;43.80
23291;DHT22;11814;44.686;10.842;2022-08-14T12:32:59;32.70;43.30
23291;DHT22;11814;44.686;10.842;2022-08-14T12:35:43;32.80;43.00
23291;DHT22;11814;44.686;10.842;2022-08-14T12:38:10;32.80;42.50
23291;DHT22;11814;44.686;10.842;2022-08-14T12:40:50;32.80;42.50
23291;DHT22;11814;44.686;10.842;2022-08-14T12:43:18;32.70;42.30
23291;DHT22;11814;44.686;10.842;2022-08-14T12:45:49;32.70;41.50
23291;DHT22;11814;44.686;10.842;2022-08-14T12:48:16;32.80;41.20
23291;DHT22;11814;44.686;10.842;2022-08-14T12:50:43;32.80;41.00
23291;DHT22;11814;44.686;10.842;2022-08-14T12:53:10;32.90;40.90
23291;DHT22;11814;44.686;10.842;2022-08-14T12:55:37;32.90;41.00
23291;DHT22;11814;44.686;10.842;2022-08-14T12:58:05;33.00;41.60
23291;DHT22;11814;44.686;10.842;2022-08-14T13:00:36;33.00;42.20
23291;DHT22;11814;44.686;10.842;2022-08-14T13:03:03;33.10;42.60
23291;DHT22;11814;44.686;10.842;2022-08-14T13:05:31;33.10;42.70
23291;DHT22;11814;44.686;10.842;2022-08-14T13:07:59;33.20;42.40
23291;DHT22;11814;44.686;10.842;2022-08-14T13:10:32;33.30;42.30
23291;DHT22;11814;44.686;10.842;2022-08-14T13:12:59;33.40;42.90
23291;DHT22;11814;44.686;10.842;2022-08-14T13:15:25;33.50;42.50
23291;DHT22;11814;44.686;10.842;2022-08-14T13:17:55;33.50;42.70
23291;DHT22;11814;44.686;10.842;2022-08-14T13:20:23;33.50;42.70
23291;DHT22;11814;44.686;10.842;2022-08-14T13:22:50;33.60;42.70
23291;DHT22;11814;44.686;10.842;2022-08-14T13:25:19;33.50;42.50
23291;DHT22;11814;44.686;10.842;2022-08-14T13:27:49;33.40;42.50
23291;DHT22;11814;44.686;10.842;2022-08-14T13:30:17;33.40;42.60
23291;DHT22;11814;44.686;10.842;2022-08-14T13:32:43;33.50;42.60
23291;DHT22;11814;44.686;10.842;2022-08-14T13:35:14;33.50;42.70
23291;DHT22;11814;44.686;10.842;2022-08-14T13:37:44;33.40;42.70
23291;DHT22;11814;44.686;10.842;2022-08-14T13:40:11;33.50;42.90
23291;DHT22;11814;44.686;10.842;2022-08-14T13:42:42;33.40;42.80
23291;DHT22;11814;44.686;10.842;2022-08-14T13:45:09;33.40;43.20
23291;DHT22;11814;44.686;10.842;2022-08-14T13:47:35;33.40;43.90
23291;DHT22;11814;44.686;10.842;2022-08-14T13:50:05;33.50;43.10
23291;DHT22;11814;44.686;10.842;2022-08-14T13:52:43;33.50;43.00
23291;DHT22;11814;44.686;10.842;2022-08-14T13:55:10;33.70;43.00
23291;DHT22;11814;44.686;10.842;2022-08-14T13:57:41;33.70;42.90
23291;DHT22;11814;44.686;10.842;2022-08-14T14:00:10;33.70;43.50
23291;DHT22;11814;44.686;10.842;2022-08-14T14:02:41;33.80;42.70
23291;DHT22;11814;44.686;10.842;2022-08-14T14:05:08;33.70;42.60
23291;DHT22;11814;44.686;10.842;2022-08-14T14:07:37;33.70;43.40
23291;DHT22;11814;44.686;10.842;2022-08-14T14:10:06;33.70;42.60
23291;DHT22;11814;44.686;10.842;2022-08-14T14:12:36;33.70;42.50
23291;DHT22;11814;44.686;10.842;2022-08-14T14:15:06;33.70;42.50
23291;DHT22;11814;44.686;10.842;2022-08-14T14:17:35;33.70;42.30
23291;DHT22;11814;44.686;10.842;2022-08-14T14:20:03;33.70;42.40
23291;DHT22;11814;44.686;10.842;2022-08-14T14:22:30;33.80;42.60
23291;DHT22;11814;44.686;10.842;2022-08-14T14:24:56;33.80;42.40
23291;DHT22;11814;44.686;10.842;2022-08-14T14:27:25;33.80;42.10
23291;DHT22;11814;44.686;10.842;2022-08-14T14:29:52;33.70;42.20
23291;DHT22;11814;44.686;10.842;2022-08-14T14:32:25;33.80;42.30
23291;DHT22;11814;44.686;10.842;2022-08-14T14:34:52;33.70;42.20
23291;DHT22;11814;44.686;10.842;2022-08-14T14:37:19;33.70;42.30
23291;DHT22;11814;44.686;10.842;2022-08-14T14:39:47;33.60;42.30
23291;DHT22;11814;44.686;10.842;2022-08-14T14:42:17;33.50;42.40
23291;DHT22;11814;44.686;10.842;2022-08-14T14:44:43;33.40;42.50
23291;DHT22;11814;44.686;10.842;2022-08-14T14:47:12;33.40;42.70
23291;DHT22;11814;44.686;10.842;2022-08-14T14:49:41;33.40;42.70
23291;DHT22;11814;44.686;10.842;2022-08-14T14:52:08;33.40;42.60
23291;DHT22;11814;44.686;10.842;2022-08-14T14:54:35;33.50;42.50
23291;DHT22;11814;44.686;10.842;2022-08-14T14:57:02;33.60;42.70
23291;DHT22;11814;44.686;10.842;2022-08-14T14:59:29;33.60;42.60
23291;DHT22;11814;44.686;10.842;2022-08-14T15:02:01;33.60;42.50
23291;DHT22;11814;44.686;10.842;2022-08-14T15:04:31;33.60;42.60
23291;DHT22;11814;44.686;10.842;2022-08-14T15:06:57;33.70;42.60
23291;DHT22;11814;44.686;10.842;2022-08-14T15:09:22;33.70;42.50
23291;DHT22;11814;44.686;10.842;2022-08-14T15:11:48;33.70;42.70
23291;DHT22;11814;44.686;10.842;2022-08-14T15:14:14;33.70;42.70
23291;DHT22;11814;44.686;10.842;2022-08-14T15:16:40;33.70;42.70
23291;DHT22;11814;44.686;10.842;2022-08-14T15:19:05;33.60;42.70
23291;DHT22;11814;44.686;10.842;2022-08-14T15:21:31;33.60;42.80
23291;DHT22;11814;44.686;10.842;2022-08-14T15:23:57;33.60;42.80
23291;DHT22;11814;44.686;10.842;2022-08-14T15:26:23;33.50;42.60
23291;DHT22;11814;44.686;10.842;2022-08-14T15:28:49;33.40;42.60
23291;DHT22;11814;44.686;10.842;2022-08-14T15:31:16;33.40;42.90
23291;DHT22;11814;44.686;10.842;2022-08-14T15:33:42;33.40;43.20
23291;DHT22;11814;44.686;10.842;2022-08-14T15:36:26;33.40;43.40
23291;DHT22;11814;44.686;10.842;2022-08-14T15:38:54;33.30;43.40
23291;DHT22;11814;44.686;10.842;2022-08-14T15:41:20;33.30;43.50
23291;DHT22;11814;44.686;10.842;2022-08-14T15:43:46;33.20;43.50
23291;DHT22;11814;44.686;10.842;2022-08-14T15:46:11;33.20;43.40
23291;DHT22;11814;44.686;10.842;2022-08-14T15:48:37;33.10;43.40
23291;DHT22;11814;44.686;10.842;2022-08-14T15:51:03;33.10;43.50
23291;DHT22;11814;44.686;10.842;2022-08-14T15:53:30;33.10;43.80
23291;DHT22;11814;44.686;10.842;2022-08-14T15:55:56;33.10;43.80
23291;DHT22;11814;44.686;10.842;2022-08-14T15:58:23;33.10;43.80